sensor_id;sensor_type;location;lat;lon;timestamp;temperature;humidity
68439;SHT31;55421;51.600;5.718;2022-12-18T00:01:23;-3.50;82.02
68439;SHT31;55421;51.600;5.718;2022-12-18T00:03:52;-3.54;81.90
68439;SHT31;55421;51.600;5.718;2022-12-18T00:06:20;-3.55;82.03
68439;SHT31;55421;51.600;5.718;2022-12-18T00:08:48;-3.55;82.17
68439;SHT31;55421;51.600;5.718;2022-12-18T00:11:16;-3.55;82.23
68439;SHT31;55421;51.600;5.718;2022-12-18T00:13:46;-3.53;82.20
68439;SHT31;55421;51.600;5.718;2022-12-18T00:16:15;-3.52;82.11
68439;SHT31;55421;51.600;5.718;2022-12-18T00:18:48;-3.52;82.10
68439;SHT31;55421;51.600;5.718;2022-12-18T00:21:18;-3.51;82.07
68439;SHT31;55421;51.600;5.718;2022-12-18T00:23:46;-3.53;81.93
68439;SHT31;55421;51.600;5.718;2022-12-18T00:26:19;-3.57;81.90
68439;SHT31;55421;51.600;5.718;2022-12-18T00:28:48;-3.60;81.90
68439;SHT31;55421;51.600;5.718;2022-12-18T00:31:19;-3.63;82.02
68439;SHT31;55421;51.600;5.718;2022-12-18T00:33:49;-3.61;82.10
68439;SHT31;55421;51.600;5.718;2022-12-18T00:36:19;-3.59;82.06
68439;SHT31;55421;51.600;5.718;2022-12-18T00:38:53;-3.56;81.92
68439;SHT31;55421;51.600;5.718;2022-12-18T00:41:21;-3.55;81.81
68439;SHT31;55421;51.600;5.718;2022-12-18T00:44:08;-3.57;81.68
68439;SHT31;55421;51.600;5.718;2022-12-18T00:46:37;-3.60;81.54
68439;SHT31;55421;51.600;5.718;2022-12-18T00:49:07;-3.65;81.49
68439;SHT31;55421;51.600;5.718;2022-12-18T00:51:34;-3.69;81.40
68439;SHT31;55421;51.600;5.718;2022-12-18T00:54:01;-3.69;81.39
68439;SHT31;55421;51.600;5.718;2022-12-18T00:56:27;-3.71;81.39
68439;SHT31;55421;51.600;5.718;2022-12-18T00:58:54;-3.72;81.40
68439;SHT31;55421;51.600;5.718;2022-12-18T01:01:20;-3.75;81.40
68439;SHT31;55421;51.600;5.718;2022-12-18T01:03:47;-3.81;81.40
68439;SHT31;55421;51.600;5.718;2022-12-18T01:06:14;-3.86;81.40
68439;SHT31;55421;51.600;5.718;2022-12-18T01:08:42;-3.89;81.40
68439;SHT31;55421;51.600;5.718;2022-12-18T01:11:11;-3.92;81.38
68439;SHT31;55421;51.600;5.718;2022-12-18T01:13:41;-3.91;81.46
68439;SHT31;55421;51.600;5.718;2022-12-18T01:16:10;-3.89;81.51
68439;SHT31;55421;51.600;5.718;2022-12-18T01:18:39;-3.90;81.53
68439;SHT31;55421;51.600;5.718;2022-12-18T01:21:07;-3.91;81.46
68439;SHT31;55421;51.600;5.718;2022-12-18T01:23:35;-3.95;81.36
68439;SHT31;55421;51.600;5.718;2022-12-18T01:26:06;-4.02;81.28
68439;SHT31;55421;51.600;5.718;2022-12-18T01:28:35;-4.07;81.24
68439;SHT31;55421;51.600;5.718;2022-12-18T01:31:13;-4.13;81.24
68439;SHT31;55421;51.600;5.718;2022-12-18T01:33:46;-4.16;81.37
68439;SHT31;55421;51.600;5.718;2022-12-18T01:36:19;-4.20;81.46
68439;SHT31;55421;51.600;5.718;2022-12-18T01:38:50;-4.23;81.51
68439;SHT31;55421;51.600;5.718;2022-12-18T01:41:19;-4.26;81.44
68439;SHT31;55421;51.600;5.718;2022-12-18T01:43:53;-4.26;81.40
68439;SHT31;55421;51.600;5.718;2022-12-18T01:46:26;-4.26;81.39
68439;SHT31;55421;51.600;5.718;2022-12-18T01:48:55;-4.26;81.37
68439;SHT31;55421;51.600;5.718;2022-12-18T01:51:25;-4.25;81.39
68439;SHT31;55421;51.600;5.718;2022-12-18T01:53:55;-4.26;81.29
68439;SHT31;55421;51.600;5.718;2022-12-18T01:56:24;-4.26;81.26
68439;SHT31;55421;51.600;5.718;2022-12-18T01:58:55;-4.27;81.24
68439;SHT31;55421;51.600;5.718;2022-12-18T02:01:29;-4.29;81.13
68439;SHT31;55421;51.600;5.718;2022-12-18T02:06:59;-4.38;81.08
68439;SHT31;55421;51.600;5.718;2022-12-18T02:09:55;-4.43;81.17
68439;SHT31;55421;51.600;5.718;2022-12-18T02:13:18;-4.46;81.34
68439;SHT31;55421;51.600;5.718;2022-12-18T02:15:31;-4.45;81.48
68439;SHT31;55421;51.600;5.718;2022-12-18T02:18:18;-4.41;81.51
68439;SHT31;55421;51.600;5.718;2022-12-18T02:20:56;-4.36;81.53
68439;SHT31;55421;51.600;5.718;2022-12-18T02:27:05;-4.34;81.49
68439;SHT31;55421;51.600;5.718;2022-12-18T02:32:08;-4.43;81.27
68439;SHT31;55421;51.600;5.718;2022-12-18T02:34:44;-4.46;81.20
68439;SHT31;55421;51.600;5.718;2022-12-18T02:37:13;-4.45;81.20
68439;SHT31;55421;51.600;5.718;2022-12-18T02:39:44;-4.42;81.20
68439;SHT31;55421;51.600;5.718;2022-12-18T02:42:14;-4.42;81.25
68439;SHT31;55421;51.600;5.718;2022-12-18T02:44:45;-4.44;81.21
68439;SHT31;55421;51.600;5.718;2022-12-18T02:47:16;-4.46;81.16
68439;SHT31;55421;51.600;5.718;2022-12-18T03:01:33;-4.59;81.04
68439;SHT31;55421;51.600;5.718;2022-12-18T03:04:16;-4.58;81.09
68439;SHT31;55421;51.600;5.718;2022-12-18T03:06:49;-4.59;81.14
68439;SHT31;55421;51.600;5.718;2022-12-18T03:09:43;-4.61;81.15
68439;SHT31;55421;51.600;5.718;2022-12-18T03:12:15;-4.64;81.17
68439;SHT31;55421;51.600;5.718;2022-12-18T03:14:52;-4.65;81.15
68439;SHT31;55421;51.600;5.718;2022-12-18T03:17:41;-4.64;81.13
68439;SHT31;55421;51.600;5.718;2022-12-18T03:20:21;-4.61;81.20
68439;SHT31;55421;51.600;5.718;2022-12-18T03:22:53;-4.60;81.21
68439;SHT31;55421;51.600;5.718;2022-12-18T03:25:26;-4.60;81.20
68439;SHT31;55421;51.600;5.718;2022-12-18T03:27:56;-4.62;81.20
68439;SHT31;55421;51.600;5.718;2022-12-18T03:30:27;-4.65;81.20
68439;SHT31;55421;51.600;5.718;2022-12-18T03:33:01;-4.69;81.09
68439;SHT31;55421;51.600;5.718;2022-12-18T03:35:53;-4.72;81.00
68439;SHT31;55421;51.600;5.718;2022-12-18T03:38:21;-4.75;80.93
68439;SHT31;55421;51.600;5.718;2022-12-18T03:43:52;-4.87;80.88
68439;SHT31;55421;51.600;5.718;2022-12-18T03:47:24;-4.93;80.91
68439;SHT31;55421;51.600;5.718;2022-12-18T03:52:30;-4.90;81.14
68439;SHT31;55421;51.600;5.718;2022-12-18T03:55:06;-4.88;81.27
68439;SHT31;55421;51.600;5.718;2022-12-18T03:57:35;-4.86;81.30
68439;SHT31;55421;51.600;5.718;2022-12-18T04:00:09;-4.87;81.30
68439;SHT31;55421;51.600;5.718;2022-12-18T04:02:45;-4.91;81.30
68439;SHT31;55421;51.600;5.718;2022-12-18T04:05:19;-4.95;81.22
68439;SHT31;55421;51.600;5.718;2022-12-18T04:07:49;-5.00;81.30
68439;SHT31;55421;51.600;5.718;2022-12-18T04:10:18;-5.05;81.35
68439;SHT31;55421;51.600;5.718;2022-12-18T04:12:45;-5.07;81.48
68439;SHT31;55421;51.600;5.718;2022-12-18T04:15:12;-5.05;81.51
68439;SHT31;55421;51.600;5.718;2022-12-18T04:17:43;-5.01;81.52
68439;SHT31;55421;51.600;5.718;2022-12-18T04:20:15;-4.98;81.59
68439;SHT31;55421;51.600;5.718;2022-12-18T04:22:43;-4.97;81.50
68439;SHT31;55421;51.600;5.718;2022-12-18T04:25:09;-4.96;81.54
68439;SHT31;55421;51.600;5.718;2022-12-18T04:27:36;-4.97;81.52
68439;SHT31;55421;51.600;5.718;2022-12-18T04:30:03;-4.98;81.57
68439;SHT31;55421;51.600;5.718;2022-12-18T04:32:30;-4.95;81.51
68439;SHT31;55421;51.600;5.718;2022-12-18T04:34:56;-4.91;81.54
68439;SHT31;55421;51.600;5.718;2022-12-18T04:37:23;-4.87;81.60
68439;SHT31;55421;51.600;5.718;2022-12-18T04:39:49;-4.86;81.60
68439;SHT31;55421;51.600;5.718;2022-12-18T04:42:16;-4.84;81.60
68439;SHT31;55421;51.600;5.718;2022-12-18T04:44:42;-4.86;81.60
68439;SHT31;55421;51.600;5.718;2022-12-18T04:47:09;-4.87;81.60
68439;SHT31;55421;51.600;5.718;2022-12-18T04:49:37;-4.86;81.60
68439;SHT31;55421;51.600;5.718;2022-12-18T04:52:04;-4.84;81.60
68439;SHT31;55421;51.600;5.718;2022-12-18T04:54:30;-4.84;81.59
68439;SHT31;55421;51.600;5.718;2022-12-18T04:56:56;-4.83;81.60
68439;SHT31;55421;51.600;5.718;2022-12-18T04:59:23;-4.84;81.56
68439;SHT31;55421;51.600;5.718;2022-12-18T05:01:50;-4.87;81.50
68439;SHT31;55421;51.600;5.718;2022-12-18T05:04:16;-4.92;81.53
68439;SHT31;55421;51.600;5.718;2022-12-18T05:06:42;-4.94;81.60
68439;SHT31;55421;51.600;5.718;2022-12-18T05:09:09;-4.96;81.60
68439;SHT31;55421;51.600;5.718;2022-12-18T05:11:36;-4.93;81.60
68439;SHT31;55421;51.600;5.718;2022-12-18T05:14:02;-4.91;81.60
68439;SHT31;55421;51.600;5.718;2022-12-18T05:16:29;-4.90;81.60
68439;SHT31;55421;51.600;5.718;2022-12-18T05:18:55;-4.91;81.62
68439;SHT31;55421;51.600;5.718;2022-12-18T05:21:22;-4.91;81.64
68439;SHT31;55421;51.600;5.718;2022-12-18T05:23:48;-4.92;81.70
68439;SHT31;55421;51.600;5.718;2022-12-18T05:26:16;-4.93;81.70
68439;SHT31;55421;51.600;5.718;2022-12-18T05:28:44;-4.95;81.69
68439;SHT31;55421;51.600;5.718;2022-12-18T05:31:12;-4.97;81.62
68439;SHT31;55421;51.600;5.718;2022-12-18T05:33:40;-4.96;81.60
68439;SHT31;55421;51.600;5.718;2022-12-18T05:36:07;-4.94;81.60
68439;SHT31;55421;51.600;5.718;2022-12-18T05:38:36;-4.92;81.61
68439;SHT31;55421;51.600;5.718;2022-12-18T05:41:04;-4.92;81.61
68439;SHT31;55421;51.600;5.718;2022-12-18T05:43:33;-4.94;81.56
68439;SHT31;55421;51.600;5.718;2022-12-18T05:46:03;-4.97;81.50
68439;SHT31;55421;51.600;5.718;2022-12-18T05:48:39;-5.01;81.49
68439;SHT31;55421;51.600;5.718;2022-12-18T05:51:09;-5.03;81.46
68439;SHT31;55421;51.600;5.718;2022-12-18T05:53:42;-5.00;81.49
68439;SHT31;55421;51.600;5.718;2022-12-18T05:56:11;-5.00;81.55
68439;SHT31;55421;51.600;5.718;2022-12-18T05:58:41;-4.99;81.60
68439;SHT31;55421;51.600;5.718;2022-12-18T06:01:09;-5.00;81.67
68439;SHT31;55421;51.600;5.718;2022-12-18T06:03:48;-5.00;81.70
68439;SHT31;55421;51.600;5.718;2022-12-18T06:06:22;-5.01;81.70
68439;SHT31;55421;51.600;5.718;2022-12-18T06:08:52;-4.98;81.70
68439;SHT31;55421;51.600;5.718;2022-12-18T06:11:22;-4.97;81.70
68439;SHT31;55421;51.600;5.718;2022-12-18T06:13:53;-4.97;81.72
68439;SHT31;55421;51.600;5.718;2022-12-18T06:16:21;-4.98;81.80
68439;SHT31;55421;51.600;5.718;2022-12-18T06:18:48;-4.99;81.82
68439;SHT31;55421;51.600;5.718;2022-12-18T06:21:14;-5.00;81.90
68439;SHT31;55421;51.600;5.718;2022-12-18T06:23:41;-5.00;81.92
68439;SHT31;55421;51.600;5.718;2022-12-18T06:26:08;-4.97;82.00
68439;SHT31;55421;51.600;5.718;2022-12-18T06:28:38;-4.94;82.00
68439;SHT31;55421;51.600;5.718;2022-12-18T06:31:04;-4.92;82.07
68439;SHT31;55421;51.600;5.718;2022-12-18T06:33:33;-4.91;82.10
68439;SHT31;55421;51.600;5.718;2022-12-18T06:36:01;-4.92;82.11
68439;SHT31;55421;51.600;5.718;2022-12-18T06:38:32;-4.93;82.13
68439;SHT31;55421;51.600;5.718;2022-12-18T06:41:02;-4.94;82.14
68439;SHT31;55421;51.600;5.718;2022-12-18T06:43:36;-4.93;82.20
68439;SHT31;55421;51.600;5.718;2022-12-18T06:46:04;-4.89;82.25
68439;SHT31;55421;51.600;5.718;2022-12-18T06:48:32;-4.86;82.33
68439;SHT31;55421;51.600;5.718;2022-12-18T06:50:59;-4.85;82.39
68439;SHT31;55421;51.600;5.718;2022-12-18T06:53:25;-4.85;82.40
68439;SHT31;55421;51.600;5.718;2022-12-18T06:55:59;-4.86;82.40
68439;SHT31;55421;51.600;5.718;2022-12-18T06:58:28;-4.87;82.43
68439;SHT31;55421;51.600;5.718;2022-12-18T07:01:01;-4.88;82.50
68439;SHT31;55421;51.600;5.718;2022-12-18T07:03:30;-4.90;82.57
68439;SHT31;55421;51.600;5.718;2022-12-18T07:05:57;-4.88;82.60
68439;SHT31;55421;51.600;5.718;2022-12-18T07:08:24;-4.84;82.60
68439;SHT31;55421;51.600;5.718;2022-12-18T07:10:51;-4.78;82.61
68439;SHT31;55421;51.600;5.718;2022-12-18T07:13:17;-4.74;82.66
68439;SHT31;55421;51.600;5.718;2022-12-18T07:15:44;-4.72;82.70
68439;SHT31;55421;51.600;5.718;2022-12-18T07:18:10;-4.71;82.68
68439;SHT31;55421;51.600;5.718;2022-12-18T07:20:37;-4.72;82.70
68439;SHT31;55421;51.600;5.718;2022-12-18T07:23:04;-4.73;82.69
68439;SHT31;55421;51.600;5.718;2022-12-18T07:25:34;-4.76;82.70
68439;SHT31;55421;51.600;5.718;2022-12-18T07:28:02;-4.79;82.74
68439;SHT31;55421;51.600;5.718;2022-12-18T07:30:30;-4.82;82.80
68439;SHT31;55421;51.600;5.718;2022-12-18T07:32:56;-4.77;82.80
68439;SHT31;55421;51.600;5.718;2022-12-18T07:35:23;-4.71;82.80
68439;SHT31;55421;51.600;5.718;2022-12-18T07:37:50;-4.67;82.80
68439;SHT31;55421;51.600;5.718;2022-12-18T07:40:16;-4.63;82.80
68439;SHT31;55421;51.600;5.718;2022-12-18T07:42:43;-4.61;82.80
68439;SHT31;55421;51.600;5.718;2022-12-18T07:45:09;-4.60;82.76
68439;SHT31;55421;51.600;5.718;2022-12-18T07:47:36;-4.61;82.72
68439;SHT31;55421;51.600;5.718;2022-12-18T07:50:03;-4.62;82.70
68439;SHT31;55421;51.600;5.718;2022-12-18T07:52:31;-4.59;82.73
68439;SHT31;55421;51.600;5.718;2022-12-18T07:54:58;-4.53;82.70
68439;SHT31;55421;51.600;5.718;2022-12-18T07:57:24;-4.46;82.70
68439;SHT31;55421;51.600;5.718;2022-12-18T07:59:51;-4.41;82.70
68439;SHT31;55421;51.600;5.718;2022-12-18T08:02:17;-4.36;82.70
68439;SHT31;55421;51.600;5.718;2022-12-18T08:04:44;-4.32;82.68
68439;SHT31;55421;51.600;5.718;2022-12-18T08:07:13;-4.29;82.66
68439;SHT31;55421;51.600;5.718;2022-12-18T08:09:40;-4.26;82.70
68439;SHT31;55421;51.600;5.718;2022-12-18T08:12:06;-4.20;82.70
68439;SHT31;55421;51.600;5.718;2022-12-18T08:14:33;-4.11;82.70
68439;SHT31;55421;51.600;5.718;2022-12-18T08:16:59;-4.03;82.66
68439;SHT31;55421;51.600;5.718;2022-12-18T08:19:26;-3.98;82.60
68439;SHT31;55421;51.600;5.718;2022-12-18T08:21:52;-3.93;82.60
68439;SHT31;55421;51.600;5.718;2022-12-18T08:24:19;-3.89;82.60
68439;SHT31;55421;51.600;5.718;2022-12-18T08:26:45;-3.86;82.60
68439;SHT31;55421;51.600;5.718;2022-12-18T08:29:12;-3.82;82.53
68439;SHT31;55421;51.600;5.718;2022-12-18T08:31:39;-3.75;82.50
68439;SHT31;55421;51.600;5.718;2022-12-18T08:34:05;-3.66;82.49
68439;SHT31;55421;51.600;5.718;2022-12-18T08:36:32;-3.58;82.42
68439;SHT31;55421;51.600;5.718;2022-12-18T08:38:58;-3.52;82.39
68439;SHT31;55421;51.600;5.718;2022-12-18T08:41:25;-3.50;82.31
68439;SHT31;55421;51.600;5.718;2022-12-18T08:43:52;-3.48;82.29
68439;SHT31;55421;51.600;5.718;2022-12-18T08:46:38;-3.45;82.21
68439;SHT31;55421;51.600;5.718;2022-12-18T08:49:07;-3.46;82.20
68439;SHT31;55421;51.600;5.718;2022-12-18T08:51:36;-3.44;82.18
68439;SHT31;55421;51.600;5.718;2022-12-18T08:54:03;-3.41;82.11
68439;SHT31;55421;51.600;5.718;2022-12-18T08:56:31;-3.36;82.07
68439;SHT31;55421;51.600;5.718;2022-12-18T08:58:58;-3.31;82.00
68439;SHT31;55421;51.600;5.718;2022-12-18T09:01:24;-3.27;82.00
68439;SHT31;55421;51.600;5.718;2022-12-18T09:03:51;-3.24;82.00
68439;SHT31;55421;51.600;5.718;2022-12-18T09:06:20;-3.19;82.00
68439;SHT31;55421;51.600;5.718;2022-12-18T09:08:48;-3.16;82.00
68439;SHT31;55421;51.600;5.718;2022-12-18T09:11:20;-3.15;81.94
68439;SHT31;55421;51.600;5.718;2022-12-18T09:13:50;-3.12;81.90
68439;SHT31;55421;51.600;5.718;2022-12-18T09:16:17;-3.04;81.81
68439;SHT31;55421;51.600;5.718;2022-12-18T09:18:45;-2.97;81.77
68439;SHT31;55421;51.600;5.718;2022-12-18T09:21:14;-2.92;81.70
68439;SHT31;55421;51.600;5.718;2022-12-18T09:23:50;-2.88;81.70
68439;SHT31;55421;51.600;5.718;2022-12-18T09:26:18;-2.85;81.69
68439;SHT31;55421;51.600;5.718;2022-12-18T09:28:47;-2.83;81.61
68439;SHT31;55421;51.600;5.718;2022-12-18T09:31:13;-2.80;81.60
68439;SHT31;55421;51.600;5.718;2022-12-18T09:33:40;-2.77;81.60
68439;SHT31;55421;51.600;5.718;2022-12-18T09:36:08;-2.71;81.58
68439;SHT31;55421;51.600;5.718;2022-12-18T09:38:37;-2.64;81.50
68439;SHT31;55421;51.600;5.718;2022-12-18T09:44:00;-2.54;81.40
68439;SHT31;55421;51.600;5.718;2022-12-18T09:46:38;-2.49;81.41
68439;SHT31;55421;51.600;5.718;2022-12-18T09:49:14;-2.46;81.39
68439;SHT31;55421;51.600;5.718;2022-12-18T09:51:54;-2.43;81.36
68439;SHT31;55421;51.600;5.718;2022-12-18T09:54:30;-2.41;81.29
68439;SHT31;55421;51.600;5.718;2022-12-18T09:57:04;-2.37;81.19
68439;SHT31;55421;51.600;5.718;2022-12-18T09:59:38;-2.30;81.12
68439;SHT31;55421;51.600;5.718;2022-12-18T10:02:29;-2.20;81.06
68439;SHT31;55421;51.600;5.718;2022-12-18T10:05:02;-2.14;80.91
68439;SHT31;55421;51.600;5.718;2022-12-18T10:10:26;-2.07;80.80
68439;SHT31;55421;51.600;5.718;2022-12-18T10:16:19;-1.99;80.76
68439;SHT31;55421;51.600;5.718;2022-12-18T10:21:39;-1.81;80.66
68439;SHT31;55421;51.600;5.718;2022-12-18T10:24:35;-1.73;80.51
68439;SHT31;55421;51.600;5.718;2022-12-18T10:27:26;-1.67;80.46
68439;SHT31;55421;51.600;5.718;2022-12-18T10:29:53;-1.63;80.31
68439;SHT31;55421;51.600;5.718;2022-12-18T10:32:24;-1.60;80.30
68439;SHT31;55421;51.600;5.718;2022-12-18T10:34:56;-1.57;80.25
68439;SHT31;55421;51.600;5.718;2022-12-18T10:37:24;-1.55;80.17
68439;SHT31;55421;51.600;5.718;2022-12-18T10:42:37;-1.45;79.72
68439;SHT31;55421;51.600;5.718;2022-12-18T10:45:12;-1.42;79.64
68439;SHT31;55421;51.600;5.718;2022-12-18T10:47:44;-1.39;79.60
68439;SHT31;55421;51.600;5.718;2022-12-18T10:50:23;-1.37;79.60
68439;SHT31;55421;51.600;5.718;2022-12-18T10:52:54;-1.33;79.55
68439;SHT31;55421;51.600;5.718;2022-12-18T10:55:37;-1.25;79.50
68439;SHT31;55421;51.600;5.718;2022-12-18T10:58:18;-1.17;79.44
68439;SHT31;55421;51.600;5.718;2022-12-18T11:01:14;-1.11;79.34
68439;SHT31;55421;51.600;5.718;2022-12-18T11:03:47;-1.07;79.24
68439;SHT31;55421;51.600;5.718;2022-12-18T11:06:28;-1.04;79.20
68439;SHT31;55421;51.600;5.718;2022-12-18T11:09:19;-1.05;78.98
68439;SHT31;55421;51.600;5.718;2022-12-18T11:11:49;-1.04;78.86
68439;SHT31;55421;51.600;5.718;2022-12-18T11:14:27;-0.99;78.75
68439;SHT31;55421;51.600;5.718;2022-12-18T11:17:01;-0.95;78.70
68439;SHT31;55421;51.600;5.718;2022-12-18T11:19:37;-0.92;78.69
68439;SHT31;55421;51.600;5.718;2022-12-18T11:22:20;-0.89;78.64
68439;SHT31;55421;51.600;5.718;2022-12-18T11:24:53;-0.87;78.70
68439;SHT31;55421;51.600;5.718;2022-12-18T11:27:22;-0.86;78.65
68439;SHT31;55421;51.600;5.718;2022-12-18T11:29:50;-0.84;78.48
68439;SHT31;55421;51.600;5.718;2022-12-18T11:32:22;-0.81;78.31
68439;SHT31;55421;51.600;5.718;2022-12-18T11:35:14;-0.75;78.23
68439;SHT31;55421;51.600;5.718;2022-12-18T11:37:54;-0.69;78.20
68439;SHT31;55421;51.600;5.718;2022-12-18T11:40:29;-0.64;78.14
68439;SHT31;55421;51.600;5.718;2022-12-18T11:43:26;-0.62;78.00
68439;SHT31;55421;51.600;5.718;2022-12-18T11:45:59;-0.61;78.00
68439;SHT31;55421;51.600;5.718;2022-12-18T11:48:34;-0.61;77.98
68439;SHT31;55421;51.600;5.718;2022-12-18T11:51:11;-0.60;77.88
68439;SHT31;55421;51.600;5.718;2022-12-18T11:53:51;-0.61;77.88
68439;SHT31;55421;51.600;5.718;2022-12-18T11:56:29;-0.56;77.87
68439;SHT31;55421;51.600;5.718;2022-12-18T11:59:08;-0.49;77.78
68439;SHT31;55421;51.600;5.718;2022-12-18T12:08:23;-0.37;77.64
68439;SHT31;55421;51.600;5.718;2022-12-18T12:11:25;-0.38;77.47
68439;SHT31;55421;51.600;5.718;2022-12-18T12:23:02;-0.31;77.16
68439;SHT31;55421;51.600;5.718;2022-12-18T12:25:57;-0.27;77.05
68439;SHT31;55421;51.600;5.718;2022-12-18T12:35:02;-0.26;77.05
68439;SHT31;55421;51.600;5.718;2022-12-18T12:40:24;-0.21;76.86
68439;SHT31;55421;51.600;5.718;2022-12-18T12:42:57;-0.14;76.73
68439;SHT31;55421;51.600;5.718;2022-12-18T12:51:11;-0.05;76.40
68439;SHT31;55421;51.600;5.718;2022-12-18T12:53:43;-0.04;76.40
68439;SHT31;55421;51.600;5.718;2022-12-18T12:56:11;-0.06;76.28
68439;SHT31;55421;51.600;5.718;2022-12-18T13:02:56;-0.11;75.96
68439;SHT31;55421;51.600;5.718;2022-12-18T13:05:19;-0.08;75.80
68439;SHT31;55421;51.600;5.718;2022-12-18T13:08:10;-0.05;75.69
68439;SHT31;55421;51.600;5.718;2022-12-18T13:10:52;-0.03;75.65
68439;SHT31;55421;51.600;5.718;2022-12-18T13:13:47;-0.02;75.60
68439;SHT31;55421;51.600;5.718;2022-12-18T13:16:18;-0.02;75.53
68439;SHT31;55421;51.600;5.718;2022-12-18T13:18:53;-0.04;75.38
68439;SHT31;55421;51.600;5.718;2022-12-18T13:26:56;-0.06;75.38
68439;SHT31;55421;51.600;5.718;2022-12-18T13:29:57;-0.01;75.39
68439;SHT31;55421;51.600;5.718;2022-12-18T13:32:22;0.03;75.25
68439;SHT31;55421;51.600;5.718;2022-12-18T13:35:36;0.04;75.17
68439;SHT31;55421;51.600;5.718;2022-12-18T13:37:53;0.05;75.07
68439;SHT31;55421;51.600;5.718;2022-12-18T13:48:29;-0.00;74.81
68439;SHT31;55421;51.600;5.718;2022-12-18T13:51:02;-0.01;74.89
68439;SHT31;55421;51.600;5.718;2022-12-18T13:53:38;0.01;74.91
68439;SHT31;55421;51.600;5.718;2022-12-18T13:56:17;0.06;74.96
68439;SHT31;55421;51.600;5.718;2022-12-18T14:01:46;0.11;75.04
68439;SHT31;55421;51.600;5.718;2022-12-18T14:04:26;0.11;74.95
68439;SHT31;55421;51.600;5.718;2022-12-18T14:07:01;0.11;74.80
68439;SHT31;55421;51.600;5.718;2022-12-18T14:09:37;0.10;74.67
68439;SHT31;55421;51.600;5.718;2022-12-18T14:12:14;0.09;74.57
68439;SHT31;55421;51.600;5.718;2022-12-18T14:15:19;0.10;74.52
68439;SHT31;55421;51.600;5.718;2022-12-18T14:17:55;0.13;74.50
68439;SHT31;55421;51.600;5.718;2022-12-18T14:20:32;0.18;74.50
68439;SHT31;55421;51.600;5.718;2022-12-18T14:23:00;0.20;74.50
68439;SHT31;55421;51.600;5.718;2022-12-18T14:25:27;0.21;74.44
68439;SHT31;55421;51.600;5.718;2022-12-18T14:28:07;0.22;74.33
68439;SHT31;55421;51.600;5.718;2022-12-18T14:30:41;0.20;74.45
68439;SHT31;55421;51.600;5.718;2022-12-18T14:33:14;0.18;74.29
68439;SHT31;55421;51.600;5.718;2022-12-18T14:35:55;0.15;74.26
68439;SHT31;55421;51.600;5.718;2022-12-18T14:38:37;0.14;74.10
68439;SHT31;55421;51.600;5.718;2022-12-18T14:41:09;0.16;74.19
68439;SHT31;55421;51.600;5.718;2022-12-18T14:43:39;0.18;74.16
68439;SHT31;55421;51.600;5.718;2022-12-18T14:48:56;0.17;74.14
68439;SHT31;55421;51.600;5.718;2022-12-18T14:51:24;0.16;74.06
68439;SHT31;55421;51.600;5.718;2022-12-18T14:54:03;0.14;74.00
68439;SHT31;55421;51.600;5.718;2022-12-18T14:56:51;0.11;74.10
68439;SHT31;55421;51.600;5.718;2022-12-18T14:59:27;0.07;74.23
68439;SHT31;55421;51.600;5.718;2022-12-18T15:01:57;0.06;74.20
68439;SHT31;55421;51.600;5.718;2022-12-18T15:04:45;0.07;74.23
68439;SHT31;55421;51.600;5.718;2022-12-18T15:07:16;0.12;74.30
68439;SHT31;55421;51.600;5.718;2022-12-18T15:10:03;0.13;74.31
68439;SHT31;55421;51.600;5.718;2022-12-18T15:12:43;0.15;74.30
68439;SHT31;55421;51.600;5.718;2022-12-18T15:18:33;0.12;74.30
68439;SHT31;55421;51.600;5.718;2022-12-18T15:21:08;0.07;74.36
68439;SHT31;55421;51.600;5.718;2022-12-18T15:23:38;0.02;74.47
68439;SHT31;55421;51.600;5.718;2022-12-18T15:26:18;-0.01;74.53
68439;SHT31;55421;51.600;5.718;2022-12-18T15:28:51;-0.05;74.62
68439;SHT31;55421;51.600;5.718;2022-12-18T15:31:29;-0.10;74.69
68439;SHT31;55421;51.600;5.718;2022-12-18T15:34:05;-0.13;74.73
68439;SHT31;55421;51.600;5.718;2022-12-18T15:36:39;-0.17;74.86
68439;SHT31;55421;51.600;5.718;2022-12-18T15:39:09;-0.20;74.97
68439;SHT31;55421;51.600;5.718;2022-12-18T15:41:38;-0.20;75.07
68439;SHT31;55421;51.600;5.718;2022-12-18T15:44:23;-0.16;75.10
68439;SHT31;55421;51.600;5.718;2022-12-18T15:46:53;-0.12;75.13
68439;SHT31;55421;51.600;5.718;2022-12-18T15:49:19;-0.10;75.10
68439;SHT31;55421;51.600;5.718;2022-12-18T15:51:47;-0.06;75.10
68439;SHT31;55421;51.600;5.718;2022-12-18T15:54:24;-0.06;75.11
68439;SHT31;55421;51.600;5.718;2022-12-18T15:57:10;-0.05;75.10
68439;SHT31;55421;51.600;5.718;2022-12-18T15:59:52;-0.05;75.10
68439;SHT31;55421;51.600;5.718;2022-12-18T16:02:22;-0.05;75.10
68439;SHT31;55421;51.600;5.718;2022-12-18T16:04:50;-0.06;75.12
68439;SHT31;55421;51.600;5.718;2022-12-18T16:07:18;-0.07;75.18
68439;SHT31;55421;51.600;5.718;2022-12-18T16:09:44;-0.09;75.12
68439;SHT31;55421;51.600;5.718;2022-12-18T16:12:15;-0.09;75.10
68439;SHT31;55421;51.600;5.718;2022-12-18T16:14:49;-0.05;75.10
68439;SHT31;55421;51.600;5.718;2022-12-18T16:17:15;-0.02;75.11
68439;SHT31;55421;51.600;5.718;2022-12-18T16:19:42;-0.01;75.08
68439;SHT31;55421;51.600;5.718;2022-12-18T16:22:19;-0.00;74.98
68439;SHT31;55421;51.600;5.718;2022-12-18T16:24:50;-0.01;75.00
68439;SHT31;55421;51.600;5.718;2022-12-18T16:27:18;-0.03;75.02
68439;SHT31;55421;51.600;5.718;2022-12-18T16:29:45;-0.06;75.10
68439;SHT31;55421;51.600;5.718;2022-12-18T16:32:13;-0.08;75.10
68439;SHT31;55421;51.600;5.718;2022-12-18T16:34:43;-0.11;75.10
68439;SHT31;55421;51.600;5.718;2022-12-18T16:37:12;-0.12;75.10
68439;SHT31;55421;51.600;5.718;2022-12-18T16:39:41;-0.09;75.10
68439;SHT31;55421;51.600;5.718;2022-12-18T16:42:13;-0.06;75.10
68439;SHT31;55421;51.600;5.718;2022-12-18T16:44:45;-0.05;75.10
68439;SHT31;55421;51.600;5.718;2022-12-18T16:47:13;-0.05;75.11
68439;SHT31;55421;51.600;5.718;2022-12-18T16:49:41;-0.06;75.11
68439;SHT31;55421;51.600;5.718;2022-12-18T16:52:10;-0.07;75.06
68439;SHT31;55421;51.600;5.718;2022-12-18T16:54:37;-0.08;75.00
68439;SHT31;55421;51.600;5.718;2022-12-18T16:57:04;-0.10;75.01
68439;SHT31;55421;51.600;5.718;2022-12-18T16:59:30;-0.13;75.00
68439;SHT31;55421;51.600;5.718;2022-12-18T17:02:01;-0.15;75.03
68439;SHT31;55421;51.600;5.718;2022-12-18T17:04:28;-0.16;75.03
68439;SHT31;55421;51.600;5.718;2022-12-18T17:06:56;-0.16;75.08
68439;SHT31;55421;51.600;5.718;2022-12-18T17:09:23;-0.11;75.10
68439;SHT31;55421;51.600;5.718;2022-12-18T17:11:50;-0.07;75.09
68439;SHT31;55421;51.600;5.718;2022-12-18T17:14:19;-0.05;74.99
68439;SHT31;55421;51.600;5.718;2022-12-18T17:16:48;-0.02;74.91
68439;SHT31;55421;51.600;5.718;2022-12-18T17:19:16;-0.01;74.83
68439;SHT31;55421;51.600;5.718;2022-12-18T17:21:43;-0.00;74.75
68439;SHT31;55421;51.600;5.718;2022-12-18T17:24:13;0.00;74.70
68439;SHT31;55421;51.600;5.718;2022-12-18T17:26:41;0.01;74.74
68439;SHT31;55421;51.600;5.718;2022-12-18T17:29:09;0.00;74.72
68439;SHT31;55421;51.600;5.718;2022-12-18T17:31:40;-0.00;74.74
68439;SHT31;55421;51.600;5.718;2022-12-18T17:34:08;-0.01;74.79
68439;SHT31;55421;51.600;5.718;2022-12-18T17:36:39;-0.02;74.81
68439;SHT31;55421;51.600;5.718;2022-12-18T17:39:06;0.02;74.89
68439;SHT31;55421;51.600;5.718;2022-12-18T17:41:33;0.04;74.77